Time;durP1;ratioP1;P1;durP2;ratioP2;P2;SDS_P1;SDS_P2;PMS_P1;PMS_P2;Temp;Humidity;BMP_temperature;BMP_pressure;BME280_temperature;BME280_humidity;BME280_pressure;Samples;Min_cycle;Max_cycle;Signal;HPM_P1;HPM_P2
2022/03/13 00:00:47;;;;;;;10.35;6.60;;;;;;;3.66;41.42;101930.28;5012765;28;20497;-44
2022/03/13 00:03:14;;;;;;;9.20;6.95;;;;;;;3.66;41.65;101933.81;5011638;28;20271;-45
2022/03/13 00:05:42;;;;;;;9.15;6.80;;;;;;;3.58;41.74;101927.56;5012665;28;20184;-46
2022/03/13 00:08:32;;;;;;;11.85;7.03;;;;;;;3.59;41.87;101932.00;5012462;28;20172;-47
2022/03/13 00:11:09;;;;;;;8.45;6.45;;;;;;;3.43;42.32;101938.94;5012407;28;20188;-44
2022/03/13 00:13:38;;;;;;;9.88;7.47;;;;;;;3.47;41.75;101926.59;5012197;28;20197;-44
2022/03/13 00:16:09;;;;;;;11.05;7.43;;;;;;;3.50;41.75;101931.94;5012108;28;20207;-44
2022/03/13 00:18:36;;;;;;;11.50;6.35;;;;;;;3.39;42.19;101928.28;5012387;28;20160;-45
2022/03/13 00:21:04;;;;;;;9.32;7.00;;;;;;;3.46;41.90;101922.19;5012067;28;20173;-44
2022/03/13 00:23:34;;;;;;;7.75;6.43;;;;;;;3.46;41.98;101924.84;5011313;28;20219;-46
2022/03/13 00:26:01;;;;;;;10.57;6.35;;;;;;;3.39;42.13;101931.84;4994776;28;20213;-46
2022/03/13 00:28:27;;;;;;;10.30;6.53;;;;;;;3.47;41.80;101921.28;5011870;28;20169;-46
2022/03/13 00:30:53;;;;;;;9.35;6.80;;;;;;;3.47;42.11;101921.28;5010680;28;20231;-44
2022/03/13 00:33:20;;;;;;;12.30;6.80;;;;;;;3.38;42.15;101913.28;5011559;28;20196;-45
2022/03/13 00:35:45;;;;;;;11.52;7.45;;;;;;;3.19;42.75;101929.00;5011675;28;20180;-46
2022/03/13 00:38:11;;;;;;;10.85;7.32;;;;;;;3.22;43.25;101921.09;5010408;28;20395;-45
2022/03/13 00:40:37;;;;;;;13.43;7.25;;;;;;;3.20;43.12;101920.16;5011760;28;20173;-44
2022/03/13 00:43:04;;;;;;;11.45;7.40;;;;;;;3.14;43.49;101922.75;5011534;28;20259;-45
2022/03/13 00:45:29;;;;;;;12.40;7.35;;;;;;;3.16;43.61;101920.13;5011383;28;20184;-45
2022/03/13 00:47:56;;;;;;;13.45;7.38;;;;;;;3.15;43.95;101921.00;5011723;28;20620;-45
2022/03/13 00:50:21;;;;;;;13.35;8.10;;;;;;;3.11;44.24;101920.09;5011303;28;20199;-46
2022/03/13 00:52:48;;;;;;;12.10;8.13;;;;;;;3.13;44.19;101923.66;5010766;28;20208;-45
2022/03/13 00:55:13;;;;;;;17.25;8.93;;;;;;;3.08;44.99;101923.59;5010394;28;20208;-47
2022/03/13 00:57:39;;;;;;;12.00;8.15;;;;;;;3.02;45.11;101920.88;5010422;28;20307;-44
2022/03/13 01:00:06;;;;;;;15.43;8.77;;;;;;;3.01;45.55;101924.38;5011473;28;20175;-46
2022/03/13 01:02:33;;;;;;;12.77;8.70;;;;;;;2.91;45.92;101914.59;5010883;28;20227;-44
2022/03/13 01:04:58;;;;;;;12.75;8.88;;;;;;;2.98;45.85;101919.06;5011303;28;20648;-45
2022/03/13 01:07:23;;;;;;;14.10;8.52;;;;;;;2.98;45.92;101926.13;5011233;28;20616;-45
2022/03/13 01:09:49;;;;;;;12.13;8.43;;;;;;;2.89;46.22;101911.03;5011303;28;20167;-47
2022/03/13 01:12:14;;;;;;;12.65;8.55;;;;;;;2.84;46.19;101926.88;5009437;28;20168;-45
2022/03/13 01:14:40;;;;;;;15.75;9.20;;;;;;;2.73;46.28;101919.66;5011603;28;20196;-45
2022/03/13 01:17:08;;;;;;;15.15;9.43;;;;;;;2.78;46.39;101923.28;5011175;28;20189;-46
2022/03/13 01:19:34;;;;;;;14.32;9.50;;;;;;;2.68;46.66;101930.19;5011160;28;20180;-44
2022/03/13 01:22:00;;;;;;;12.88;8.88;;;;;;;2.77;46.57;101927.66;5010752;28;20192;-44
2022/03/13 01:24:31;;;;;;;15.85;9.38;;;;;;;2.61;47.25;101923.06;5010585;28;20705;-43
2022/03/13 01:27:02;;;;;;;13.23;9.45;;;;;;;2.53;47.11;101930.88;5011094;28;20283;-46
2022/03/13 01:29:29;;;;;;;12.48;9.00;;;;;;;2.53;47.40;101920.31;5010688;28;20188;-45
2022/03/13 01:31:55;;;;;;;14.27;9.57;;;;;;;2.52;47.30;101913.25;5010609;28;20191;-46
2022/03/13 01:34:36;;;;;;;15.40;9.27;;;;;;;2.53;47.59;101922.94;5010539;28;20197;-45
2022/03/13 01:37:03;;;;;;;15.05;8.93;;;;;;;2.45;47.58;101919.34;5010927;28;20248;-46
2022/03/13 01:39:29;;;;;;;14.32;9.20;;;;;;;2.49;47.29;101915.84;5010853;28;20181;-45
2022/03/13 01:41:56;;;;;;;14.77;8.98;;;;;;;2.42;47.32;101904.31;5010625;28;20588;-45
2022/03/13 01:44:21;;;;;;;17.15;9.57;;;;;;;2.34;47.97;101908.63;5009891;28;20220;-45
2022/03/13 01:46:47;;;;;;;16.23;9.38;;;;;;;2.37;47.61;101902.50;5010310;28;20731;-44
2022/03/13 01:49:15;;;;;;;13.02;8.98;;;;;;;2.36;48.19;101893.66;5009096;28;20169;-46
2022/03/13 01:51:41;;;;;;;17.63;9.98;;;;;;;2.28;48.37;101902.38;5010771;28;20189;-45
2022/03/13 01:54:09;;;;;;;14.68;8.77;;;;;;;2.46;47.12;101902.59;5008703;28;20196;-45
2022/03/13 01:56:36;;;;;;;13.05;8.85;;;;;;;2.39;47.43;101899.00;5010992;28;20168;-45
2022/03/13 01:59:03;;;;;;;14.48;9.43;;;;;;;2.36;47.63;101904.25;5008960;28;20191;-44
2022/03/13 02:01:29;;;;;;;16.27;8.75;;;;;;;2.36;47.99;101901.59;5010222;28;20175;-46
2022/03/13 02:03:55;;;;;;;16.20;10.35;;;;;;;2.35;48.06;101901.56;5009956;28;20578;-45
2022/03/13 02:06:23;;;;;;;13.02;8.90;;;;;;;2.28;47.75;101905.03;5009977;28;20235;-45
2022/03/13 02:08:50;;;;;;;16.98;9.90;;;;;;;2.19;48.18;101906.66;5008906;28;20250;-45
2022/03/13 02:11:21;;;;;;;14.20;8.93;;;;;;;2.24;48.23;101904.97;5010327;28;20270;-46
2022/03/13 02:13:49;;;;;;;16.67;9.27;;;;;;;2.16;48.53;101911.88;5008862;28;20246;-46
2022/03/13 02:16:16;;;;;;;18.20;9.57;;;;;;;2.15;48.39;101907.47;5010211;28;20173;-45
2022/03/13 02:18:42;;;;;;;15.43;9.18;;;;;;;2.11;48.79;101912.72;5010020;28;20164;-47
2022/03/13 02:21:08;;;;;;;14.60;9.80;;;;;;;2.01;49.19;101906.38;5010370;28;20183;-46
2022/03/13 02:23:34;;;;;;;14.85;9.40;;;;;;;1.99;48.87;101918.69;5009525;28;20208;-45
2022/03/13 02:26:06;;;;;;;13.88;9.32;;;;;;;1.94;49.16;101918.63;5010324;28;20168;-44
2022/03/13 02:28:37;;;;;;;13.10;9.43;;;;;;;1.91;49.52;101913.31;5005578;28;20233;-45
2022/03/13 02:31:11;;;;;;;17.23;9.60;;;;;;;1.70;49.86;101911.22;5009820;28;20176;-44
2022/03/13 02:33:38;;;;;;;15.00;10.07;;;;;;;1.73;49.85;101915.66;5008164;28;20211;-45
2022/03/13 02:36:05;;;;;;;15.32;9.98;;;;;;;1.67;49.80;101918.22;5009630;28;20250;-45
2022/03/13 02:38:33;;;;;;;14.65;9.57;;;;;;;1.70;50.49;101905.06;5011730;28;20250;-46
2022/03/13 02:40:58;;;;;;;15.65;9.55;;;;;;;1.57;50.29;101911.88;5009581;28;20180;-45
2022/03/13 02:43:24;;;;;;;16.42;9.45;;;;;;;1.50;50.56;101905.63;5027572;28;20253;-46
2022/03/13 02:45:54;;;;;;;16.55;10.32;;;;;;;1.40;51.08;101914.25;5029570;28;20640;-45
2022/03/13 02:48:20;;;;;;;23.27;9.85;;;;;;;1.45;51.45;101909.94;5029586;28;20271;-46
2022/03/13 02:50:45;;;;;;;16.67;9.20;;;;;;;1.45;51.17;101909.94;5029638;28;20165;-45
2022/03/13 02:53:15;;;;;;;16.38;9.55;;;;;;;1.42;51.21;101904.59;5028814;28;20236;-45
2022/03/13 02:55:40;;;;;;;13.55;9.27;;;;;;;1.40;51.20;101911.59;5029924;28;20204;-45
2022/03/13 02:58:06;;;;;;;14.95;10.00;;;;;;;1.34;51.56;101917.69;5029164;28;20261;-45
2022/03/13 03:00:46;;;;;;;16.92;9.52;;;;;;;1.26;52.10;101907.84;5028509;28;20168;-46
2022/03/13 03:03:13;;;;;;;16.58;10.25;;;;;;;1.17;52.16;101901.53;5026072;28;20214;-46
2022/03/13 03:05:39;;;;;;;14.88;9.75;;;;;;;1.27;51.40;101909.63;5009652;28;20169;-45
2022/03/13 03:08:05;;;;;;;13.93;9.40;;;;;;;1.21;51.42;101921.84;5010064;28;20176;-46
2022/03/13 03:10:30;;;;;;;14.13;9.00;;;;;;;1.13;51.87;101906.75;5009614;28;20676;-45
2022/03/13 03:12:56;;;;;;;13.65;9.02;;;;;;;1.13;52.30;101906.75;5008895;28;20180;-46
2022/03/13 03:15:22;;;;;;;15.90;9.95;;;;;;;0.98;52.25;101913.53;5009828;28;20173;-45
2022/03/13 03:17:48;;;;;;;14.93;10.13;;;;;;;1.01;51.94;101908.31;5009009;28;20173;-44
2022/03/13 03:20:13;;;;;;;13.82;9.35;;;;;;;0.91;52.52;101910.75;5009513;28;20615;-44
2022/03/13 03:22:38;;;;;;;15.43;9.50;;;;;;;0.92;53.08;101904.59;5012305;28;20275;-44
2022/03/13 03:25:05;;;;;;;16.02;9.48;;;;;;;0.89;52.67;101910.69;5013385;28;20223;-43
2022/03/13 03:27:31;;;;;;;18.95;10.30;;;;;;;0.86;52.70;101908.03;5013044;28;20219;-44
2022/03/13 03:29:59;;;;;;;15.35;9.52;;;;;;;0.79;53.54;101907.00;5013568;28;20204;-44
2022/03/13 03:32:24;;;;;;;13.82;9.30;;;;;;;0.82;53.44;101898.25;5012364;28;20663;-43
2022/03/13 03:34:50;;;;;;;14.82;9.45;;;;;;;0.83;53.89;101907.94;5012619;28;20235;-43
2022/03/13 03:37:15;;;;;;;17.30;9.88;;;;;;;0.64;54.26;101914.63;5012924;28;20165;-42
2022/03/13 03:39:41;;;;;;;13.88;9.25;;;;;;;0.75;53.41;101910.44;5012532;28;20247;-43
2022/03/13 03:42:07;;;;;;;18.38;9.38;;;;;;;0.70;53.87;101904.22;5011430;28;20203;-42
2022/03/13 03:44:32;;;;;;;16.05;9.88;;;;;;;0.69;54.12;101902.41;5012706;28;20560;-43
2022/03/13 03:46:59;;;;;;;15.07;10.13;;;;;;;0.71;53.13;101905.97;5012852;28;20169;-43
2022/03/13 03:49:24;;;;;;;15.02;9.45;;;;;;;0.68;53.28;101897.09;5012327;28;20165;-43
2022/03/13 03:51:50;;;;;;;13.90;9.50;;;;;;;0.68;53.44;101905.00;5012608;28;20350;-41
2022/03/13 03:54:15;;;;;;;14.45;9.15;;;;;;;0.59;53.71;101900.44;5012348;28;20192;-42
2022/03/13 03:56:41;;;;;;;16.27;10.52;;;;;;;0.60;53.71;101908.41;5012822;28;20196;-42
2022/03/13 03:59:06;;;;;;;14.02;9.32;;;;;;;0.62;53.33;101903.16;5012385;28;20243;-44
2022/03/13 04:01:41;;;;;;;17.55;9.60;;;;;;;0.57;53.78;101897.78;5012218;28;20169;-42
2022/03/13 04:04:08;;;;;;;15.13;9.63;;;;;;;0.64;53.40;101904.06;5011069;28;20737;-41
2022/03/13 04:06:38;;;;;;;13.73;9.25;;;;;;;0.68;53.27;101908.56;5012422;28;20632;-43
2022/03/13 04:09:07;;;;;;;16.27;9.18;;;;;;;0.57;52.94;101905.72;5012348;28;20519;-42
2022/03/13 04:11:34;;;;;;;13.70;9.40;;;;;;;0.64;52.79;101904.06;5012426;28;20168;-44
2022/03/13 04:13:59;;;;;;;17.98;9.30;;;;;;;0.51;53.42;101897.66;5012282;28;20207;-42
2022/03/13 04:16:25;;;;;;;13.25;8.55;;;;;;;0.52;53.38;101907.34;5012049;28;20176;-42
2022/03/13 04:18:51;;;;;;;18.98;9.63;;;;;;;0.58;52.82;101903.94;5012339;28;20180;-42
2022/03/13 04:21:17;;;;;;;13.25;8.68;;;;;;;0.54;53.09;101903.00;5010632;28;20180;-42
2022/03/13 04:23:43;;;;;;;16.10;9.68;;;;;;;0.54;53.07;101913.53;5011843;28;20307;-42
2022/03/13 04:26:09;;;;;;;13.15;8.35;;;;;;;0.50;53.07;101914.31;5012031;28;20260;-42
2022/03/13 04:28:34;;;;;;;12.23;8.38;;;;;;;0.55;52.29;101912.69;5010813;28;20169;-42
2022/03/13 04:31:00;;;;;;;13.65;8.48;;;;;;;0.47;52.71;101923.94;5011503;28;20192;-44
2022/03/13 04:33:31;;;;;;;14.23;8.65;;;;;;;0.36;53.07;101921.06;5020121;28;20210;-43
2022/03/13 04:36:00;;;;;;;13.00;8.82;;;;;;;0.28;53.23;101920.91;5031323;28;20176;-45
2022/03/13 04:38:27;;;;;;;14.43;8.95;;;;;;;0.26;54.07;101927.00;5017382;28;20184;-44
2022/03/13 04:40:54;;;;;;;13.68;8.95;;;;;;;0.23;54.31;101929.59;5010976;28;20528;-45
2022/03/13 04:43:21;;;;;;;14.15;8.98;;;;;;;0.22;55.32;101920.78;5009639;28;20219;-45
2022/03/13 04:45:48;;;;;;;16.33;9.52;;;;;;;0.08;55.12;101920.47;5011197;28;20168;-44
2022/03/13 04:48:13;;;;;;;14.38;8.93;;;;;;;0.09;55.93;101923.97;5011801;28;20640;-45
2022/03/13 04:50:39;;;;;;;16.02;10.38;;;;;;;0.02;55.60;101914.16;5012055;28;20306;-44
2022/03/13 04:53:06;;;;;;;14.50;8.95;;;;;;;-0.10;56.27;101914.78;5010556;28;20216;-46
2022/03/13 04:55:32;;;;;;;16.52;9.20;;;;;;;-0.05;55.91;101919.28;5011570;28;20181;-45
2022/03/13 04:57:57;;;;;;;14.27;9.70;;;;;;;-0.16;56.95;101917.28;5011196;28;20168;-43
2022/03/13 05:00:24;;;;;;;13.80;9.15;;;;;;;-0.19;57.00;101912.84;5011198;28;20230;-45
2022/03/13 05:02:50;;;;;;;13.20;9.75;;;;;;;-0.15;56.95;101908.50;5010693;28;20188;-45
2022/03/13 05:05:15;;;;;;;15.30;8.70;;;;;;;-0.12;56.70;101903.34;5010753;28;20248;-44
2022/03/13 05:07:41;;;;;;;16.70;9.88;;;;;;;-0.04;56.34;101904.41;5011394;28;20169;-45
2022/03/13 05:10:06;;;;;;;14.52;9.00;;;;;;;0.02;56.03;101908.91;5010999;28;20172;-43
2022/03/13 05:12:32;;;;;;;16.80;9.05;;;;;;;0.10;55.56;101910.84;5010509;28;20711;-45
2022/03/13 05:14:58;;;;;;;13.77;9.30;;;;;;;0.09;55.28;101910.81;5011034;28;20188;-44
2022/03/13 05:17:23;;;;;;;13.20;8.52;;;;;;;0.12;55.06;101909.16;5010987;28;20192;-44
2022/03/13 05:19:49;;;;;;;13.27;8.77;;;;;;;0.06;55.69;101903.72;5011053;28;20168;-44
2022/03/13 05:22:14;;;;;;;16.58;8.90;;;;;;;0.01;56.04;101913.28;5010520;28;20177;-45
2022/03/13 05:24:40;;;;;;;11.70;8.13;;;;;;;0.03;55.44;101910.69;5010626;28;20243;-43
2022/03/13 05:27:05;;;;;;;16.17;8.02;;;;;;;0.08;54.67;101919.59;5010873;28;20172;-44
2022/03/13 05:29:30;;;;;;;13.98;8.85;;;;;;;0.16;54.81;101912.75;5010718;28;20188;-43
2022/03/13 05:31:56;;;;;;;10.95;7.97;;;;;;;0.17;54.66;101919.78;5010823;28;20639;-44
2022/03/13 05:34:21;;;;;;;10.77;7.90;;;;;;;0.13;54.59;101916.22;5010353;28;20208;-44
2022/03/13 05:36:47;;;;;;;14.60;8.70;;;;;;;0.20;54.42;101917.22;5010378;28;20549;-44
2022/03/13 05:39:12;;;;;;;12.68;8.52;;;;;;;0.26;53.67;101919.09;5010831;28;20832;-44
2022/03/13 05:41:39;;;;;;;12.57;8.65;;;;;;;0.37;52.81;101918.47;5009409;28;20176;-46
2022/03/13 05:44:09;;;;;;;11.77;8.23;;;;;;;0.40;52.87;101923.81;5009612;28;20212;-46
2022/03/13 05:46:35;;;;;;;12.98;7.63;;;;;;;0.43;53.03;101917.72;5010474;28;20188;-45
2022/03/13 05:49:00;;;;;;;17.58;8.27;;;;;;;0.39;53.21;101924.69;5010328;28;20264;-45
2022/03/13 05:51:26;;;;;;;12.63;8.40;;;;;;;0.42;53.00;101913.31;5010494;28;20639;-44
2022/03/13 05:53:51;;;;;;;11.88;7.90;;;;;;;0.49;52.54;101920.47;5010609;28;20276;-45
2022/03/13 05:56:17;;;;;;;14.73;8.25;;;;;;;0.51;52.66;101923.16;5010157;28;20255;-45
2022/03/13 05:58:42;;;;;;;14.10;7.88;;;;;;;0.48;52.05;101916.06;5013709;28;20242;-44
2022/03/13 06:01:09;;;;;;;12.57;8.05;;;;;;;0.56;51.76;101914.47;5011190;28;20559;-46
2022/03/13 06:03:35;;;;;;;13.77;8.05;;;;;;;0.61;51.72;101927.72;5009910;28;20200;-44
2022/03/13 06:06:02;;;;;;;13.25;7.78;;;;;;;0.67;51.39;101927.88;5009081;28;20565;-46
2022/03/13 06:08:28;;;;;;;14.15;7.53;;;;;;;0.75;51.36;101931.56;5010032;28;20493;-43
2022/03/13 06:10:53;;;;;;;12.00;7.88;;;;;;;0.73;51.44;101932.38;5010201;28;20177;-44
2022/03/13 06:13:20;;;;;;;13.27;7.38;;;;;;;0.72;51.06;101939.41;5009664;28;20667;-45
2022/03/13 06:15:46;;;;;;;13.77;8.05;;;;;;;0.79;51.46;101941.31;5010707;28;20176;-44
2022/03/13 06:18:12;;;;;;;12.35;7.78;;;;;;;0.77;50.65;101936.88;5010522;28;20593;-44
2022/03/13 06:20:37;;;;;;;11.52;8.02;;;;;;;0.83;50.50;101929.03;5010447;28;20176;-45
2022/03/13 06:23:03;;;;;;;10.60;7.47;;;;;;;0.94;50.68;101916.06;5008881;28;20197;-44
2022/03/13 06:25:29;;;;;;;11.52;7.72;;;;;;;0.94;50.32;101919.63;5010312;28;20239;-43
2022/03/13 06:27:56;;;;;;;13.30;7.05;;;;;;;1.05;50.68;101919.81;5010488;28;20485;-45
2022/03/13 06:30:21;;;;;;;13.15;8.48;;;;;;;1.10;50.73;101928.69;5010467;28;20192;-45
2022/03/13 06:32:49;;;;;;;12.13;7.53;;;;;;;1.20;49.74;101930.66;5009818;28;20655;-45
2022/03/13 06:35:17;;;;;;;10.85;7.65;;;;;;;1.30;49.72;101922.88;5010478;28;20208;-45
2022/03/13 06:37:43;;;;;;;11.50;7.20;;;;;;;1.39;49.59;101947.69;5009342;28;20180;-46
2022/03/13 06:40:10;;;;;;;10.13;7.20;;;;;;;1.46;48.95;101940.75;5009109;28;20251;-44
2022/03/13 06:42:37;;;;;;;10.07;7.30;;;;;;;1.59;49.29;101941.84;5009657;28;20200;-45
2022/03/13 06:45:03;;;;;;;12.30;7.78;;;;;;;1.63;49.08;101941.03;5010143;28;20208;-45
2022/03/13 06:47:29;;;;;;;12.30;7.55;;;;;;;1.73;48.73;101945.63;5010555;28;20269;-47
2022/03/13 06:49:54;;;;;;;10.18;7.93;;;;;;;1.80;48.00;101943.97;5009727;28;20296;-44
2022/03/13 06:52:20;;;;;;;10.65;7.45;;;;;;;1.99;48.04;101939.84;5008386;28;20180;-43
2022/03/13 06:54:45;;;;;;;10.18;7.13;;;;;;;2.18;46.96;101930.44;5167202;22;21013;-41
2022/03/13 06:57:14;;;;;;;12.35;7.28;;;;;;;2.35;46.63;101931.53;5021409;28;20184;-44
2022/03/13 06:59:41;;;;;;;13.45;7.45;;;;;;;2.47;46.15;101925.50;5005937;28;20220;-43
2022/03/13 07:02:07;;;;;;;16.40;7.70;;;;;;;2.56;45.48;101915.06;5003623;28;20559;-41
2022/03/13 07:04:32;;;;;;;11.95;7.68;;;;;;;2.63;45.21;101924.84;5012617;28;20196;-43
2022/03/13 07:06:58;;;;;;;11.05;7.80;;;;;;;2.78;44.69;101921.50;5011923;28;20765;-43
2022/03/13 07:09:23;;;;;;;11.82;7.25;;;;;;;2.93;44.35;101911.94;5012920;28;20652;-44
2022/03/13 07:11:49;;;;;;;12.35;7.75;;;;;;;2.96;44.18;101912.00;5012952;28;20189;-44
2022/03/13 07:14:18;;;;;;;11.82;7.10;;;;;;;3.12;44.09;101913.91;5012814;28;20705;-43
2022/03/13 07:16:43;;;;;;;11.18;7.28;;;;;;;3.33;43.60;101907.94;5013059;28;20306;-43
2022/03/13 07:19:09;;;;;;;12.02;7.63;;;;;;;3.36;42.75;101913.25;5012809;28;20191;-43
2022/03/13 07:21:34;;;;;;;11.82;8.00;;;;;;;3.38;43.59;101910.63;5012696;28;20187;-43
2022/03/13 07:24:00;;;;;;;11.57;7.13;;;;;;;3.51;42.66;101917.78;5011933;28;20258;-45
2022/03/13 07:26:25;;;;;;;13.98;7.82;;;;;;;3.67;42.30;101919.72;5012236;28;20191;-43
2022/03/13 07:28:51;;;;;;;11.68;7.63;;;;;;;3.70;42.32;101919.72;5013151;28;20165;-44
2022/03/13 07:31:16;;;;;;;11.65;7.22;;;;;;;3.96;41.88;101915.47;5011232;28;20169;-44
2022/03/13 07:33:41;;;;;;;11.43;7.30;;;;;;;3.98;41.74;101914.63;5012192;28;20671;-44
2022/03/13 07:36:07;;;;;;;10.80;7.68;;;;;;;4.21;41.11;101924.47;5013022;28;20200;-43
2022/03/13 07:38:32;;;;;;;10.52;7.75;;;;;;;4.59;40.99;101918.47;5011713;28;20355;-43
2022/03/13 07:40:58;;;;;;;12.93;7.95;;;;;;;4.58;40.66;101922.88;5012724;28;20268;-42
2022/03/13 07:43:23;;;;;;;12.27;7.60;;;;;;;4.52;40.24;101923.72;5022722;28;20200;-43
2022/03/13 07:45:50;;;;;;;10.98;8.13;;;;;;;4.18;40.29;101919.16;5032035;28;20544;-43
2022/03/13 07:48:15;;;;;;;9.73;7.28;;;;;;;4.58;40.08;101924.66;5031794;28;20593;-42
2022/03/13 07:50:41;;;;;;;11.02;7.63;;;;;;;4.60;39.90;101926.44;5019148;28;20184;-44
2022/03/13 07:53:06;;;;;;;9.73;7.20;;;;;;;4.88;39.49;101922.13;5015716;28;20199;-43
2022/03/13 07:55:32;;;;;;;9.90;7.35;;;;;;;4.86;39.15;101915.91;5022405;28;20264;-44
2022/03/13 07:57:57;;;;;;;9.82;6.95;;;;;;;5.05;38.98;101907.97;5026559;28;20241;-42
2022/03/13 08:00:24;;;;;;;10.02;7.68;;;;;;;4.87;38.24;101900.84;5028089;28;20176;-42
2022/03/13 08:02:49;;;;;;;11.60;7.38;;;;;;;5.14;38.21;101903.56;5031269;28;20203;-44
2022/03/13 08:05:18;;;;;;;12.35;7.70;;;;;;;4.99;38.08;101900.00;4994156;28;20671;-44
2022/03/13 08:07:46;;;;;;;9.65;7.60;;;;;;;5.52;38.22;101894.72;4992205;28;20514;-43
2022/03/13 08:10:12;;;;;;;11.27;7.88;;;;;;;5.59;37.39;101895.63;4992105;28;20186;-45
2022/03/13 08:12:38;;;;;;;11.07;8.00;;;;;;;5.28;37.18;101890.28;4992028;28;20201;-44
2022/03/13 08:15:06;;;;;;;10.25;7.68;;;;;;;5.79;37.84;101903.56;4992097;28;20252;-43
2022/03/13 08:17:33;;;;;;;11.88;7.40;;;;;;;5.73;36.77;101899.16;4992446;28;20193;-43
2022/03/13 08:20:04;;;;;;;9.02;6.70;;;;;;;5.80;37.13;101893.84;4992016;28;20224;-43
2022/03/13 08:22:30;;;;;;;11.20;7.38;;;;;;;5.96;36.43;101900.94;4990641;28;20199;-44
2022/03/13 08:24:56;;;;;;;10.25;7.13;;;;;;;5.73;36.18;101903.59;4992202;28;20575;-42
2022/03/13 08:27:22;;;;;;;11.40;8.00;;;;;;;5.74;36.40;101903.56;4992130;28;20174;-43
2022/03/13 08:29:47;;;;;;;12.73;7.60;;;;;;;5.58;36.25;101893.84;4992281;28;20193;-44
2022/03/13 08:32:13;;;;;;;12.23;7.70;;;;;;;6.01;36.14;101904.44;4991236;28;20196;-41
2022/03/13 08:34:39;;;;;;;12.38;7.15;;;;;;;5.69;36.20;101893.84;4991901;28;20272;-42
2022/03/13 08:37:05;;;;;;;10.73;6.93;;;;;;;5.81;35.91;101891.16;5004173;28;20181;-41
2022/03/13 08:39:32;;;;;;;9.45;7.32;;;;;;;5.88;35.71;101881.41;5010789;28;20176;-41
2022/03/13 08:41:57;;;;;;;11.50;7.63;;;;;;;6.06;36.13;101881.41;5011298;28;20239;-42
2022/03/13 08:44:22;;;;;;;10.65;7.10;;;;;;;6.11;35.67;101881.38;5010642;28;20197;-41
2022/03/13 08:46:48;;;;;;;11.90;7.95;;;;;;;6.17;35.80;101895.56;5011268;28;20255;-42
2022/03/13 08:49:14;;;;;;;12.73;7.80;;;;;;;6.49;35.31;101883.88;5009836;28;20181;-42
2022/03/13 08:51:40;;;;;;;9.70;7.40;;;;;;;6.44;34.77;101883.03;5011006;28;20180;-42
2022/03/13 08:54:05;;;;;;;11.57;7.65;;;;;;;6.62;35.17;101874.06;5009107;28;20196;-42
2022/03/13 08:56:31;;;;;;;10.68;7.00;;;;;;;6.95;34.73;101878.34;5011107;28;20243;-42
2022/03/13 08:58:57;;;;;;;11.18;7.00;;;;;;;6.30;34.70;101871.56;5011052;28;20196;-40
2022/03/13 09:01:24;;;;;;;11.00;7.55;;;;;;;6.53;34.79;101867.00;5011330;28;20662;-40
2022/03/13 09:03:49;;;;;;;11.25;7.60;;;;;;;6.58;35.31;101872.31;5010205;28;20201;-41
2022/03/13 09:06:17;;;;;;;9.98;7.82;;;;;;;6.39;35.20;101887.50;5011355;28;20157;-41
2022/03/13 09:08:43;;;;;;;11.52;7.82;;;;;;;6.41;34.32;101877.75;5011092;28;20165;-41
2022/03/13 09:11:10;;;;;;;12.63;7.68;;;;;;;6.56;34.20;101877.66;5010962;28;20184;-42
2022/03/13 09:13:36;;;;;;;11.07;7.35;;;;;;;6.88;34.44;101873.06;5010445;28;20217;-40
2022/03/13 09:16:02;;;;;;;9.15;7.13;;;;;;;6.73;34.23;101874.03;5010460;28;20179;-42
2022/03/13 09:18:30;;;;;;;11.50;7.05;;;;;;;7.21;34.11;101871.94;5010153;28;20660;-41
2022/03/13 09:20:59;;;;;;;9.40;7.43;;;;;;;7.06;34.05;101888.03;5009433;28;20833;-41
2022/03/13 09:23:24;;;;;;;11.30;7.32;;;;;;;7.20;33.83;101870.19;5009939;28;20212;-42
2022/03/13 09:25:53;;;;;;;9.68;6.97;;;;;;;7.08;33.65;101876.47;5010764;28;20195;-42
2022/03/13 09:28:22;;;;;;;9.15;7.07;;;;;;;6.88;32.53;101883.72;5010543;28;20177;-42
2022/03/13 09:30:48;;;;;;;11.30;7.50;;;;;;;7.21;33.15;101877.25;5010738;28;20204;-42
2022/03/13 09:33:14;;;;;;;10.60;6.93;;;;;;;7.03;32.96;101883.59;5010232;28;20750;-42
2022/03/13 09:35:40;;;;;;;9.55;7.10;;;;;;;7.59;33.02;101874.28;5010088;28;20212;-43
2022/03/13 09:38:06;;;;;;;8.95;7.20;;;;;;;7.29;32.77;101877.22;5010593;28;20670;-44
2022/03/13 09:40:33;;;;;;;10.43;7.20;;;;;;;7.51;33.95;101875.25;5010294;28;20314;-43
2022/03/13 09:43:00;;;;;;;9.75;7.85;;;;;;;7.43;32.94;101868.22;5010105;28;20206;-42
2022/03/13 09:45:27;;;;;;;8.63;7.00;;;;;;;7.05;32.42;101880.94;5010319;28;20183;-41
2022/03/13 09:47:53;;;;;;;13.90;7.00;;;;;;;7.62;33.38;101878.72;5009978;28;20902;-43
2022/03/13 09:50:21;;;;;;;10.90;7.40;;;;;;;7.74;33.24;101873.25;5010407;28;20196;-43
2022/03/13 09:52:47;;;;;;;11.90;7.20;;;;;;;7.71;33.40;101869.72;5009540;28;20258;-42
2022/03/13 09:55:14;;;;;;;8.98;7.13;;;;;;;7.98;32.87;101876.56;5010400;28;20802;-43
2022/03/13 09:57:41;;;;;;;10.82;7.07;;;;;;;7.67;32.45;101876.00;5009996;28;20208;-43
2022/03/13 10:00:10;;;;;;;10.48;7.28;;;;;;;7.62;32.33;101868.03;5010152;28;20180;-43
2022/03/13 10:02:39;;;;;;;10.00;7.70;;;;;;;7.23;31.99;101870.13;5009758;28;20199;-42
2022/03/13 10:05:12;;;;;;;10.63;6.85;;;;;;;7.30;32.49;101874.50;5018755;28;20207;-41
2022/03/13 10:07:55;;;;;;;8.13;6.82;;;;;;;7.69;32.83;101877.75;5010556;28;20180;-42
2022/03/13 10:10:26;;;;;;;10.32;7.00;;;;;;;7.84;32.07;101869.59;5009730;28;20665;-42
2022/03/13 10:12:52;;;;;;;10.13;7.07;;;;;;;8.19;32.39;101862.97;5009587;28;20204;-42
2022/03/13 10:15:18;;;;;;;10.52;7.10;;;;;;;7.87;32.93;101860.69;5008394;28;20169;-41
2022/03/13 10:17:44;;;;;;;10.70;6.97;;;;;;;7.99;32.35;101865.00;5010118;28;20161;-42
2022/03/13 10:20:15;;;;;;;8.70;7.03;;;;;;;8.20;32.94;101866.56;5010126;28;20616;-41
2022/03/13 10:22:43;;;;;;;10.25;6.95;;;;;;;8.21;33.06;101853.16;5014882;28;20203;-42
2022/03/13 10:25:08;;;;;;;10.32;7.00;;;;;;;7.92;31.81;101871.31;5029636;28;20227;-43
2022/03/13 10:27:34;;;;;;;9.93;7.13;;;;;;;8.01;32.14;101863.19;5030116;28;20176;-41
2022/03/13 10:30:01;;;;;;;8.40;6.65;;;;;;;7.51;32.64;101852.13;5029474;28;20253;-42
2022/03/13 10:32:27;;;;;;;8.93;7.13;;;;;;;7.71;32.52;101861.72;5033077;28;20616;-42
2022/03/13 10:34:56;;;;;;;11.30;7.28;;;;;;;8.01;32.51;101860.53;5033449;28;20168;-41
2022/03/13 10:37:38;;;;;;;8.75;7.00;;;;;;;8.54;32.42;101858.16;5033565;28;20191;-43
2022/03/13 10:40:09;;;;;;;9.95;7.25;;;;;;;7.98;31.77;101861.47;5033171;28;20183;-42
2022/03/13 10:42:41;;;;;;;9.38;6.82;;;;;;;8.33;32.24;101864.59;5033143;28;20200;-42
2022/03/13 10:45:08;;;;;;;8.60;6.93;;;;;;;8.07;31.84;101873.81;5032960;28;20568;-42
2022/03/13 10:47:37;;;;;;;9.73;7.07;;;;;;;8.00;32.39;101864.09;5033439;28;20165;-42
2022/03/13 10:50:03;;;;;;;9.35;7.00;;;;;;;8.17;32.01;101872.78;5033476;28;20168;-42
2022/03/13 10:52:41;;;;;;;9.07;7.22;;;;;;;8.08;32.15;101870.22;5032495;28;20208;-41
2022/03/13 10:55:24;;;;;;;12.00;7.38;;;;;;;8.32;32.46;101868.19;5031728;28;20184;-42
2022/03/13 10:57:52;;;;;;;11.30;7.75;;;;;;;8.19;32.70;101857.63;5032986;28;20187;-42
2022/03/13 11:00:19;;;;;;;10.68;7.75;;;;;;;8.39;32.26;101856.50;5031425;28;20266;-42
2022/03/13 11:02:45;;;;;;;10.13;6.80;;;;;;;8.53;32.13;101851.06;5032189;28;20184;-43
2022/03/13 11:05:10;;;;;;;9.35;7.15;;;;;;;8.68;32.02;101852.59;4997246;28;20216;-43
2022/03/13 11:07:36;;;;;;;9.10;6.95;;;;;;;8.50;32.15;101854.63;4993700;28;20593;-42
2022/03/13 11:10:03;;;;;;;10.07;6.95;;;;;;;8.41;31.96;101860.09;4993566;28;20799;-42
2022/03/13 11:12:30;;;;;;;9.82;6.72;;;;;;;8.54;32.24;101852.81;4992783;28;20197;-44
2022/03/13 11:15:01;;;;;;;9.18;6.97;;;;;;;8.49;32.34;101842.19;4993451;28;20185;-45
2022/03/13 11:17:29;;;;;;;10.68;7.30;;;;;;;8.52;32.46;101850.13;4993027;28;20169;-42
2022/03/13 11:19:57;;;;;;;11.95;7.80;;;;;;;8.66;32.59;101842.84;4993259;28;20264;-43
2022/03/13 11:22:23;;;;;;;9.88;7.45;;;;;;;9.09;32.22;101833.28;4992274;28;20645;-43
2022/03/13 11:24:51;;;;;;;10.90;7.13;;;;;;;8.99;31.52;101839.69;4992895;28;20185;-43